sensor_id;sensor_type;location;lat;lon;timestamp;P1;durP1;ratioP1;P2;durP2;ratioP2
7571;SDS011;3827;49.928;8.548;2024-02-04T00:00:17;1.30;;;1.30;;
7571;SDS011;3827;49.928;8.548;2024-02-04T00:02:45;1.40;;;1.30;;
7571;SDS011;3827;49.928;8.548;2024-02-04T00:05:13;1.50;;;1.40;;
7571;SDS011;3827;49.928;8.548;2024-02-04T00:07:40;1.10;;;1.10;;
7571;SDS011;3827;49.928;8.548;2024-02-04T00:10:07;1.25;;;1.25;;
7571;SDS011;3827;49.928;8.548;2024-02-04T00:12:34;1.02;;;1.00;;
7571;SDS011;3827;49.928;8.548;2024-02-04T00:15:01;1.00;;;1.00;;
7571;SDS011;3827;49.928;8.548;2024-02-04T00:17:29;1.13;;;1.10;;
7571;SDS011;3827;49.928;8.548;2024-02-04T00:19:58;1.30;;;1.20;;
7571;SDS011;3827;49.928;8.548;2024-02-04T00:22:26;1.10;;;1.10;;
7571;SDS011;3827;49.928;8.548;2024-02-04T00:24:53;1.20;;;1.20;;
7571;SDS011;3827;49.928;8.548;2024-02-04T00:27:26;1.10;;;1.10;;
7571;SDS011;3827;49.928;8.548;2024-02-04T00:29:53;1.00;;;1.00;;
7571;SDS011;3827;49.928;8.548;2024-02-04T00:32:20;1.03;;;1.03;;
7571;SDS011;3827;49.928;8.548;2024-02-04T00:37:14;1.08;;;1.08;;
7571;SDS011;3827;49.928;8.548;2024-02-04T00:39:43;1.40;;;1.20;;
7571;SDS011;3827;49.928;8.548;2024-02-04T00:42:10;1.40;;;1.20;;
7571;SDS011;3827;49.928;8.548;2024-02-04T00:44:37;1.38;;;1.10;;
7571;SDS011;3827;49.928;8.548;2024-02-04T00:47:04;1.05;;;1.05;;
7571;SDS011;3827;49.928;8.548;2024-02-04T00:49:31;1.00;;;1.00;;
7571;SDS011;3827;49.928;8.548;2024-02-04T00:51:58;1.00;;;1.00;;
7571;SDS011;3827;49.928;8.548;2024-02-04T00:54:25;1.40;;;1.30;;
7571;SDS011;3827;49.928;8.548;2024-02-04T00:56:53;1.30;;;1.30;;
7571;SDS011;3827;49.928;8.548;2024-02-04T00:59:20;1.10;;;1.10;;
7571;SDS011;3827;49.928;8.548;2024-02-04T01:01:47;1.10;;;1.10;;
7571;SDS011;3827;49.928;8.548;2024-02-04T01:04:15;1.40;;;1.30;;
7571;SDS011;3827;49.928;8.548;2024-02-04T01:06:42;1.08;;;1.08;;
7571;SDS011;3827;49.928;8.548;2024-02-04T01:09:09;1.10;;;1.10;;
7571;SDS011;3827;49.928;8.548;2024-02-04T01:11:36;1.10;;;1.10;;
7571;SDS011;3827;49.928;8.548;2024-02-04T01:14:04;1.13;;;1.10;;
7571;SDS011;3827;49.928;8.548;2024-02-04T01:16:31;1.10;;;1.10;;
7571;SDS011;3827;49.928;8.548;2024-02-04T01:18:58;1.10;;;1.10;;
7571;SDS011;3827;49.928;8.548;2024-02-04T01:21:25;0.90;;;0.90;;
7571;SDS011;3827;49.928;8.548;2024-02-04T01:23:52;1.10;;;1.10;;
7571;SDS011;3827;49.928;8.548;2024-02-04T01:26:19;1.33;;;1.23;;
7571;SDS011;3827;49.928;8.548;2024-02-04T01:28:48;1.35;;;1.25;;
7571;SDS011;3827;49.928;8.548;2024-02-04T01:31:16;1.13;;;1.10;;
7571;SDS011;3827;49.928;8.548;2024-02-04T01:33:43;1.20;;;1.20;;
7571;SDS011;3827;49.928;8.548;2024-02-04T01:36:10;1.13;;;1.13;;
7571;SDS011;3827;49.928;8.548;2024-02-04T01:38:37;1.40;;;1.30;;
7571;SDS011;3827;49.928;8.548;2024-02-04T01:41:04;1.40;;;1.30;;
7571;SDS011;3827;49.928;8.548;2024-02-04T01:43:31;0.80;;;0.80;;
7571;SDS011;3827;49.928;8.548;2024-02-04T01:45:58;0.82;;;0.82;;
7571;SDS011;3827;49.928;8.548;2024-02-04T01:48:26;0.90;;;0.90;;
7571;SDS011;3827;49.928;8.548;2024-02-04T01:50:53;1.10;;;0.77;;
7571;SDS011;3827;49.928;8.548;2024-02-04T01:53:22;0.80;;;0.80;;
7571;SDS011;3827;49.928;8.548;2024-02-04T01:55:52;0.70;;;0.70;;
7571;SDS011;3827;49.928;8.548;2024-02-04T01:58:20;0.90;;;0.90;;
7571;SDS011;3827;49.928;8.548;2024-02-04T02:00:48;0.68;;;0.68;;
7571;SDS011;3827;49.928;8.548;2024-02-04T02:03:15;0.70;;;0.70;;
7571;SDS011;3827;49.928;8.548;2024-02-04T02:05:44;1.70;;;0.80;;
7571;SDS011;3827;49.928;8.548;2024-02-04T02:08:12;0.70;;;0.70;;
7571;SDS011;3827;49.928;8.548;2024-02-04T02:10:40;0.70;;;0.70;;
7571;SDS011;3827;49.928;8.548;2024-02-04T02:13:16;0.60;;;0.60;;
7571;SDS011;3827;49.928;8.548;2024-02-04T02:15:48;0.80;;;0.80;;
7571;SDS011;3827;49.928;8.548;2024-02-04T02:18:18;0.73;;;0.73;;
7571;SDS011;3827;49.928;8.548;2024-02-04T02:20:55;0.80;;;0.77;;
7571;SDS011;3827;49.928;8.548;2024-02-04T02:23:34;0.80;;;0.80;;
7571;SDS011;3827;49.928;8.548;2024-02-04T02:26:15;0.80;;;0.80;;
7571;SDS011;3827;49.928;8.548;2024-02-04T02:28:43;0.95;;;0.95;;
7571;SDS011;3827;49.928;8.548;2024-02-04T02:31:10;0.98;;;0.98;;
7571;SDS011;3827;49.928;8.548;2024-02-04T02:33:37;0.90;;;0.90;;
7571;SDS011;3827;49.928;8.548;2024-02-04T02:36:06;1.42;;;1.10;;
7571;SDS011;3827;49.928;8.548;2024-02-04T02:38:41;1.10;;;1.10;;
7571;SDS011;3827;49.928;8.548;2024-02-04T02:41:16;0.90;;;0.90;;
7571;SDS011;3827;49.928;8.548;2024-02-04T02:43:45;1.20;;;1.20;;
7571;SDS011;3827;49.928;8.548;2024-02-04T02:46:13;1.33;;;1.23;;
7571;SDS011;3827;49.928;8.548;2024-02-04T02:48:41;1.17;;;1.10;;
7571;SDS011;3827;49.928;8.548;2024-02-04T02:51:08;1.30;;;1.20;;
7571;SDS011;3827;49.928;8.548;2024-02-04T02:53:34;1.05;;;1.02;;
7571;SDS011;3827;49.928;8.548;2024-02-04T02:56:01;1.30;;;1.30;;
7571;SDS011;3827;49.928;8.548;2024-02-04T02:58:30;1.40;;;1.30;;
7571;SDS011;3827;49.928;8.548;2024-02-04T03:00:57;1.38;;;1.30;;
7571;SDS011;3827;49.928;8.548;2024-02-04T03:03:24;1.40;;;1.30;;
7571;SDS011;3827;49.928;8.548;2024-02-04T03:05:51;1.33;;;1.30;;
7571;SDS011;3827;49.928;8.548;2024-02-04T03:08:18;1.48;;;1.40;;
7571;SDS011;3827;49.928;8.548;2024-02-04T03:10:44;1.48;;;1.40;;
7571;SDS011;3827;49.928;8.548;2024-02-04T03:13:11;1.55;;;1.45;;
7571;SDS011;3827;49.928;8.548;2024-02-04T03:15:40;1.45;;;1.35;;
7571;SDS011;3827;49.928;8.548;2024-02-04T03:18:07;1.70;;;1.60;;
7571;SDS011;3827;49.928;8.548;2024-02-04T03:20:34;1.60;;;1.50;;
7571;SDS011;3827;49.928;8.548;2024-02-04T03:23:01;1.80;;;1.70;;
7571;SDS011;3827;49.928;8.548;2024-02-04T03:25:28;1.90;;;1.80;;
7571;SDS011;3827;49.928;8.548;2024-02-04T03:27:55;1.90;;;1.80;;
7571;SDS011;3827;49.928;8.548;2024-02-04T03:30:21;1.77;;;1.67;;
7571;SDS011;3827;49.928;8.548;2024-02-04T03:32:50;2.08;;;1.98;;
7571;SDS011;3827;49.928;8.548;2024-02-04T03:35:17;1.77;;;1.67;;
7571;SDS011;3827;49.928;8.548;2024-02-04T03:37:43;1.70;;;1.60;;
7571;SDS011;3827;49.928;8.548;2024-02-04T03:40:11;2.45;;;1.90;;
7571;SDS011;3827;49.928;8.548;2024-02-04T03:42:38;2.15;;;2.05;;
7571;SDS011;3827;49.928;8.548;2024-02-04T03:45:05;1.80;;;1.70;;
7571;SDS011;3827;49.928;8.548;2024-02-04T03:47:33;2.42;;;2.22;;
7571;SDS011;3827;49.928;8.548;2024-02-04T03:50:02;1.73;;;1.63;;
7571;SDS011;3827;49.928;8.548;2024-02-04T03:52:29;1.80;;;1.70;;
7571;SDS011;3827;49.928;8.548;2024-02-04T03:54:56;1.90;;;1.80;;
7571;SDS011;3827;49.928;8.548;2024-02-04T03:57:24;2.00;;;1.90;;
7571;SDS011;3827;49.928;8.548;2024-02-04T03:59:51;2.10;;;2.00;;
7571;SDS011;3827;49.928;8.548;2024-02-04T04:02:18;2.10;;;2.00;;
7571;SDS011;3827;49.928;8.548;2024-02-04T04:04:45;2.10;;;2.00;;
7571;SDS011;3827;49.928;8.548;2024-02-04T04:07:14;2.10;;;2.00;;
7571;SDS011;3827;49.928;8.548;2024-02-04T04:09:40;2.35;;;2.15;;
7571;SDS011;3827;49.928;8.548;2024-02-04T04:12:07;2.30;;;2.10;;
7571;SDS011;3827;49.928;8.548;2024-02-04T04:14:34;2.90;;;2.25;;
7571;SDS011;3827;49.928;8.548;2024-02-04T04:17:01;2.10;;;1.90;;
7571;SDS011;3827;49.928;8.548;2024-02-04T04:19:28;2.30;;;2.10;;
7571;SDS011;3827;49.928;8.548;2024-02-04T04:21:55;1.90;;;1.80;;
7571;SDS011;3827;49.928;8.548;2024-02-04T04:24:23;1.73;;;1.63;;
7571;SDS011;3827;49.928;8.548;2024-02-04T04:26:50;1.55;;;1.45;;
7571;SDS011;3827;49.928;8.548;2024-02-04T04:29:17;2.30;;;1.55;;
7571;SDS011;3827;49.928;8.548;2024-02-04T04:31:43;1.73;;;1.50;;
7571;SDS011;3827;49.928;8.548;2024-02-04T04:34:11;1.33;;;1.23;;
7571;SDS011;3827;49.928;8.548;2024-02-04T04:36:38;1.40;;;1.30;;
7571;SDS011;3827;49.928;8.548;2024-02-04T04:39:05;1.52;;;1.42;;
7571;SDS011;3827;49.928;8.548;2024-02-04T04:41:33;1.42;;;1.33;;
7571;SDS011;3827;49.928;8.548;2024-02-04T04:44:00;1.30;;;1.20;;
7571;SDS011;3827;49.928;8.548;2024-02-04T04:46:28;1.43;;;1.20;;
7571;SDS011;3827;49.928;8.548;2024-02-04T04:48:54;1.23;;;1.23;;
7571;SDS011;3827;49.928;8.548;2024-02-04T04:51:23;1.17;;;1.17;;
7571;SDS011;3827;49.928;8.548;2024-02-04T04:53:49;0.80;;;0.80;;
7571;SDS011;3827;49.928;8.548;2024-02-04T04:56:16;0.60;;;0.60;;
7571;SDS011;3827;49.928;8.548;2024-02-04T04:58:44;0.50;;;0.50;;
7571;SDS011;3827;49.928;8.548;2024-02-04T05:01:11;0.50;;;0.40;;
7571;SDS011;3827;49.928;8.548;2024-02-04T05:03:39;0.50;;;0.50;;
7571;SDS011;3827;49.928;8.548;2024-02-04T05:06:06;0.40;;;0.40;;
7571;SDS011;3827;49.928;8.548;2024-02-04T05:08:35;0.70;;;0.70;;
7571;SDS011;3827;49.928;8.548;2024-02-04T05:11:05;1.00;;;0.70;;
7571;SDS011;3827;49.928;8.548;2024-02-04T05:13:32;0.70;;;0.70;;
7571;SDS011;3827;49.928;8.548;2024-02-04T05:16:00;0.50;;;0.50;;
7571;SDS011;3827;49.928;8.548;2024-02-04T05:18:27;1.30;;;0.40;;
7571;SDS011;3827;49.928;8.548;2024-02-04T05:20:53;0.40;;;0.40;;
7571;SDS011;3827;49.928;8.548;2024-02-04T05:23:21;0.50;;;0.50;;
7571;SDS011;3827;49.928;8.548;2024-02-04T05:25:50;0.90;;;0.90;;
7571;SDS011;3827;49.928;8.548;2024-02-04T05:28:16;1.15;;;1.05;;
7571;SDS011;3827;49.928;8.548;2024-02-04T05:30:43;1.30;;;1.20;;
7571;SDS011;3827;49.928;8.548;2024-02-04T05:33:14;1.10;;;1.00;;
7571;SDS011;3827;49.928;8.548;2024-02-04T05:35:41;1.00;;;1.00;;
7571;SDS011;3827;49.928;8.548;2024-02-04T05:38:09;1.00;;;1.00;;
7571;SDS011;3827;49.928;8.548;2024-02-04T05:40:35;1.13;;;1.02;;
7571;SDS011;3827;49.928;8.548;2024-02-04T05:43:02;1.08;;;0.90;;
7571;SDS011;3827;49.928;8.548;2024-02-04T05:45:31;0.90;;;0.90;;
7571;SDS011;3827;49.928;8.548;2024-02-04T05:47:58;0.80;;;0.80;;
7571;SDS011;3827;49.928;8.548;2024-02-04T05:50:27;0.98;;;0.80;;
7571;SDS011;3827;49.928;8.548;2024-02-04T05:52:53;0.80;;;0.80;;
7571;SDS011;3827;49.928;8.548;2024-02-04T05:55:20;0.80;;;0.80;;
7571;SDS011;3827;49.928;8.548;2024-02-04T05:57:47;0.70;;;0.70;;
7571;SDS011;3827;49.928;8.548;2024-02-04T06:00:14;0.80;;;0.80;;
7571;SDS011;3827;49.928;8.548;2024-02-04T06:02:41;0.70;;;0.70;;
7571;SDS011;3827;49.928;8.548;2024-02-04T06:05:09;2.10;;;0.90;;
7571;SDS011;3827;49.928;8.548;2024-02-04T06:07:37;0.70;;;0.70;;
7571;SDS011;3827;49.928;8.548;2024-02-04T06:10:04;0.70;;;0.70;;
7571;SDS011;3827;49.928;8.548;2024-02-04T06:12:34;0.57;;;0.57;;
7571;SDS011;3827;49.928;8.548;2024-02-04T06:15:02;0.70;;;0.70;;
7571;SDS011;3827;49.928;8.548;2024-02-04T06:17:30;0.60;;;0.60;;
7571;SDS011;3827;49.928;8.548;2024-02-04T06:19:57;0.88;;;0.70;;
7571;SDS011;3827;49.928;8.548;2024-02-04T06:22:25;0.68;;;0.50;;
7571;SDS011;3827;49.928;8.548;2024-02-04T06:24:53;0.50;;;0.50;;
7571;SDS011;3827;49.928;8.548;2024-02-04T06:27:20;0.50;;;0.50;;
7571;SDS011;3827;49.928;8.548;2024-02-04T06:29:47;0.60;;;0.60;;
7571;SDS011;3827;49.928;8.548;2024-02-04T06:32:14;0.67;;;0.67;;
7571;SDS011;3827;49.928;8.548;2024-02-04T06:34:41;0.60;;;0.60;;
7571;SDS011;3827;49.928;8.548;2024-02-04T06:37:08;0.80;;;0.70;;
7571;SDS011;3827;49.928;8.548;2024-02-04T06:39:34;0.60;;;0.60;;
7571;SDS011;3827;49.928;8.548;2024-02-04T06:42:03;0.60;;;0.60;;
7571;SDS011;3827;49.928;8.548;2024-02-04T06:44:30;0.50;;;0.50;;
7571;SDS011;3827;49.928;8.548;2024-02-04T06:46:57;0.50;;;0.50;;
7571;SDS011;3827;49.928;8.548;2024-02-04T06:49:24;1.00;;;0.60;;
7571;SDS011;3827;49.928;8.548;2024-02-04T06:51:51;0.70;;;0.60;;
7571;SDS011;3827;49.928;8.548;2024-02-04T06:54:21;0.50;;;0.50;;
7571;SDS011;3827;49.928;8.548;2024-02-04T06:56:48;0.50;;;0.50;;
7571;SDS011;3827;49.928;8.548;2024-02-04T06:59:17;0.43;;;0.43;;
7571;SDS011;3827;49.928;8.548;2024-02-04T07:01:44;0.40;;;0.40;;
7571;SDS011;3827;49.928;8.548;2024-02-04T07:04:11;0.50;;;0.50;;
7571;SDS011;3827;49.928;8.548;2024-02-04T07:06:38;0.40;;;0.40;;
7571;SDS011;3827;49.928;8.548;2024-02-04T07:09:05;0.60;;;0.60;;
7571;SDS011;3827;49.928;8.548;2024-02-04T07:11:32;0.50;;;0.50;;
7571;SDS011;3827;49.928;8.548;2024-02-04T07:13:58;0.32;;;0.32;;
7571;SDS011;3827;49.928;8.548;2024-02-04T07:16:27;0.43;;;0.43;;
7571;SDS011;3827;49.928;8.548;2024-02-04T07:18:54;0.50;;;0.50;;
7571;SDS011;3827;49.928;8.548;2024-02-04T07:21:21;0.40;;;0.40;;
7571;SDS011;3827;49.928;8.548;2024-02-04T07:23:48;0.60;;;0.50;;
7571;SDS011;3827;49.928;8.548;2024-02-04T07:26:15;0.50;;;0.50;;
7571;SDS011;3827;49.928;8.548;2024-02-04T07:28:42;0.50;;;0.50;;
7571;SDS011;3827;49.928;8.548;2024-02-04T07:31:08;0.70;;;0.50;;
7571;SDS011;3827;49.928;8.548;2024-02-04T07:33:37;0.47;;;0.47;;
7571;SDS011;3827;49.928;8.548;2024-02-04T07:36:05;0.40;;;0.40;;
7571;SDS011;3827;49.928;8.548;2024-02-04T07:38:32;0.38;;;0.38;;
7571;SDS011;3827;49.928;8.548;2024-02-04T07:40:59;0.70;;;0.30;;
7571;SDS011;3827;49.928;8.548;2024-02-04T07:43:26;0.40;;;0.40;;
7571;SDS011;3827;49.928;8.548;2024-02-04T07:45:53;0.50;;;0.40;;
7571;SDS011;3827;49.928;8.548;2024-02-04T07:48:20;0.40;;;0.40;;
7571;SDS011;3827;49.928;8.548;2024-02-04T07:50:48;0.40;;;0.40;;
7571;SDS011;3827;49.928;8.548;2024-02-04T07:53:15;0.90;;;0.40;;
7571;SDS011;3827;49.928;8.548;2024-02-04T07:55:42;0.50;;;0.50;;
7571;SDS011;3827;49.928;8.548;2024-02-04T07:58:09;0.40;;;0.40;;
7571;SDS011;3827;49.928;8.548;2024-02-04T08:00:36;0.30;;;0.30;;
7571;SDS011;3827;49.928;8.548;2024-02-04T08:03:03;0.80;;;0.40;;
7571;SDS011;3827;49.928;8.548;2024-02-04T08:05:30;0.35;;;0.35;;
7571;SDS011;3827;49.928;8.548;2024-02-04T08:08:01;0.30;;;0.30;;
7571;SDS011;3827;49.928;8.548;2024-02-04T08:10:28;0.30;;;0.30;;
7571;SDS011;3827;49.928;8.548;2024-02-04T08:12:55;0.20;;;0.20;;
7571;SDS011;3827;49.928;8.548;2024-02-04T08:15:22;0.40;;;0.40;;
7571;SDS011;3827;49.928;8.548;2024-02-04T08:17:49;1.17;;;0.30;;
7571;SDS011;3827;49.928;8.548;2024-02-04T08:20:17;0.35;;;0.35;;
7571;SDS011;3827;49.928;8.548;2024-02-04T08:22:44;0.35;;;0.35;;
7571;SDS011;3827;49.928;8.548;2024-02-04T08:25:12;0.30;;;0.30;;
7571;SDS011;3827;49.928;8.548;2024-02-04T08:27:39;0.30;;;0.30;;
7571;SDS011;3827;49.928;8.548;2024-02-04T08:30:06;0.70;;;0.40;;
7571;SDS011;3827;49.928;8.548;2024-02-04T08:32:35;0.30;;;0.30;;
7571;SDS011;3827;49.928;8.548;2024-02-04T08:35:02;0.30;;;0.30;;
7571;SDS011;3827;49.928;8.548;2024-02-04T08:37:29;0.30;;;0.30;;
7571;SDS011;3827;49.928;8.548;2024-02-04T08:39:56;0.30;;;0.30;;
7571;SDS011;3827;49.928;8.548;2024-02-04T08:42:24;0.50;;;0.30;;
7571;SDS011;3827;49.928;8.548;2024-02-04T08:44:51;0.80;;;0.40;;
7571;SDS011;3827;49.928;8.548;2024-02-04T08:47:26;0.30;;;0.30;;
7571;SDS011;3827;49.928;8.548;2024-02-04T08:49:59;0.30;;;0.30;;
7571;SDS011;3827;49.928;8.548;2024-02-04T08:52:26;0.50;;;0.40;;
7571;SDS011;3827;49.928;8.548;2024-02-04T08:54:53;0.30;;;0.30;;
7571;SDS011;3827;49.928;8.548;2024-02-04T08:57:20;0.47;;;0.35;;
7571;SDS011;3827;49.928;8.548;2024-02-04T08:59:49;0.30;;;0.30;;
7571;SDS011;3827;49.928;8.548;2024-02-04T09:02:16;0.40;;;0.40;;
7571;SDS011;3827;49.928;8.548;2024-02-04T09:04:43;0.70;;;0.50;;
7571;SDS011;3827;49.928;8.548;2024-02-04T09:07:10;0.30;;;0.30;;
7571;SDS011;3827;49.928;8.548;2024-02-04T09:09:37;0.30;;;0.30;;
7571;SDS011;3827;49.928;8.548;2024-02-04T09:12:05;0.32;;;0.30;;
7571;SDS011;3827;49.928;8.548;2024-02-04T09:14:32;0.60;;;0.30;;
7571;SDS011;3827;49.928;8.548;2024-02-04T09:17:01;0.30;;;0.30;;
7571;SDS011;3827;49.928;8.548;2024-02-04T09:19:29;0.22;;;0.22;;
7571;SDS011;3827;49.928;8.548;2024-02-04T09:21:56;0.30;;;0.30;;
7571;SDS011;3827;49.928;8.548;2024-02-04T09:24:23;0.80;;;0.40;;
7571;SDS011;3827;49.928;8.548;2024-02-04T09:26:50;0.40;;;0.40;;
7571;SDS011;3827;49.928;8.548;2024-02-04T09:29:16;0.40;;;0.30;;
7571;SDS011;3827;49.928;8.548;2024-02-04T09:31:43;0.35;;;0.35;;
7571;SDS011;3827;49.928;8.548;2024-02-04T09:34:11;0.40;;;0.40;;
7571;SDS011;3827;49.928;8.548;2024-02-04T09:36:38;0.70;;;0.40;;
7571;SDS011;3827;49.928;8.548;2024-02-04T09:39:05;0.40;;;0.40;;
7571;SDS011;3827;49.928;8.548;2024-02-04T09:41:32;0.30;;;0.30;;
7571;SDS011;3827;49.928;8.548;2024-02-04T09:44:00;0.22;;;0.22;;
7571;SDS011;3827;49.928;8.548;2024-02-04T09:46:28;0.30;;;0.30;;
7571;SDS011;3827;49.928;8.548;2024-02-04T09:48:56;0.30;;;0.30;;
7571;SDS011;3827;49.928;8.548;2024-02-04T09:51:26;0.40;;;0.40;;
7571;SDS011;3827;49.928;8.548;2024-02-04T09:53:54;0.30;;;0.30;;
7571;SDS011;3827;49.928;8.548;2024-02-04T09:56:28;0.50;;;0.50;;
7571;SDS011;3827;49.928;8.548;2024-02-04T09:58:58;0.60;;;0.60;;
7571;SDS011;3827;49.928;8.548;2024-02-04T10:01:25;0.40;;;0.40;;
7571;SDS011;3827;49.928;8.548;2024-02-04T10:03:53;0.60;;;0.60;;
7571;SDS011;3827;49.928;8.548;2024-02-04T10:06:19;0.35;;;0.35;;
7571;SDS011;3827;49.928;8.548;2024-02-04T10:08:48;0.40;;;0.40;;
7571;SDS011;3827;49.928;8.548;2024-02-04T10:11:15;0.40;;;0.40;;
7571;SDS011;3827;49.928;8.548;2024-02-04T10:13:42;0.40;;;0.30;;
7571;SDS011;3827;49.928;8.548;2024-02-04T10:16:10;0.70;;;0.40;;
7571;SDS011;3827;49.928;8.548;2024-02-04T10:18:37;0.45;;;0.40;;
7571;SDS011;3827;49.928;8.548;2024-02-04T10:21:14;0.30;;;0.30;;
7571;SDS011;3827;49.928;8.548;2024-02-04T10:23:42;0.40;;;0.40;;
7571;SDS011;3827;49.928;8.548;2024-02-04T10:26:10;0.50;;;0.40;;
7571;SDS011;3827;49.928;8.548;2024-02-04T10:28:37;0.40;;;0.40;;
7571;SDS011;3827;49.928;8.548;2024-02-04T10:31:05;0.40;;;0.40;;
7571;SDS011;3827;49.928;8.548;2024-02-04T10:33:34;0.40;;;0.40;;
7571;SDS011;3827;49.928;8.548;2024-02-04T10:36:01;0.50;;;0.50;;
7571;SDS011;3827;49.928;8.548;2024-02-04T10:38:28;0.60;;;0.43;;
7571;SDS011;3827;49.928;8.548;2024-02-04T10:40:55;0.50;;;0.40;;
7571;SDS011;3827;49.928;8.548;2024-02-04T10:43:27;0.80;;;0.40;;
7571;SDS011;3827;49.928;8.548;2024-02-04T10:45:58;0.30;;;0.30;;
7571;SDS011;3827;49.928;8.548;2024-02-04T10:48:27;0.47;;;0.43;;
7571;SDS011;3827;49.928;8.548;2024-02-04T10:51:03;0.40;;;0.40;;
7571;SDS011;3827;49.928;8.548;2024-02-04T10:53:31;0.43;;;0.43;;
7571;SDS011;3827;49.928;8.548;2024-02-04T10:55:59;0.30;;;0.30;;
7571;SDS011;3827;49.928;8.548;2024-02-04T10:58:30;0.47;;;0.40;;
7571;SDS011;3827;49.928;8.548;2024-02-04T11:00:59;0.40;;;0.40;;
7571;SDS011;3827;49.928;8.548;2024-02-04T11:03:26;0.60;;;0.60;;
7571;SDS011;3827;49.928;8.548;2024-02-04T11:05:54;0.50;;;0.50;;
7571;SDS011;3827;49.928;8.548;2024-02-04T11:08:21;0.50;;;0.50;;
7571;SDS011;3827;49.928;8.548;2024-02-04T11:10:48;0.60;;;0.60;;
7571;SDS011;3827;49.928;8.548;2024-02-04T11:13:15;1.17;;;0.87;;
7571;SDS011;3827;49.928;8.548;2024-02-04T11:15:44;1.38;;;0.80;;
7571;SDS011;3827;49.928;8.548;2024-02-04T11:18:15;0.60;;;0.60;;
7571;SDS011;3827;49.928;8.548;2024-02-04T11:21:22;0.50;;;0.50;;
7571;SDS011;3827;49.928;8.548;2024-02-04T11:24:08;0.60;;;0.60;;
7571;SDS011;3827;49.928;8.548;2024-02-04T11:26:45;1.00;;;0.60;;
7571;SDS011;3827;49.928;8.548;2024-02-04T11:29:12;0.50;;;0.50;;
7571;SDS011;3827;49.928;8.548;2024-02-04T11:31:40;0.70;;;0.63;;
7571;SDS011;3827;49.928;8.548;2024-02-04T11:34:07;1.17;;;0.57;;
7571;SDS011;3827;49.928;8.548;2024-02-04T11:36:37;0.43;;;0.43;;
7571;SDS011;3827;49.928;8.548;2024-02-04T11:39:11;0.60;;;0.60;;
7571;SDS011;3827;49.928;8.548;2024-02-04T11:41:44;0.50;;;0.50;;
7571;SDS011;3827;49.928;8.548;2024-02-04T11:44:12;0.40;;;0.40;;
7571;SDS011;3827;49.928;8.548;2024-02-04T11:46:46;0.50;;;0.50;;
7571;SDS011;3827;49.928;8.548;2024-02-04T11:49:16;0.50;;;0.50;;
7571;SDS011;3827;49.928;8.548;2024-02-04T11:51:45;0.80;;;0.50;;
7571;SDS011;3827;49.928;8.548;2024-02-04T11:54:14;1.25;;;0.50;;
7571;SDS011;3827;49.928;8.548;2024-02-04T11:56:43;1.10;;;0.50;;
7571;SDS011;3827;49.928;8.548;2024-02-04T11:59:11;0.77;;;0.70;;
7571;SDS011;3827;49.928;8.548;2024-02-04T12:01:39;0.50;;;0.50;;
7571;SDS011;3827;49.928;8.548;2024-02-04T12:04:11;1.08;;;1.08;;
7571;SDS011;3827;49.928;8.548;2024-02-04T12:06:40;0.80;;;0.70;;
7571;SDS011;3827;49.928;8.548;2024-02-04T12:09:07;1.45;;;0.73;;
7571;SDS011;3827;49.928;8.548;2024-02-04T12:11:35;0.57;;;0.57;;
7571;SDS011;3827;49.928;8.548;2024-02-04T12:14:03;0.50;;;0.50;;
7571;SDS011;3827;49.928;8.548;2024-02-04T12:16:30;0.60;;;0.60;;
7571;SDS011;3827;49.928;8.548;2024-02-04T12:18:57;0.93;;;0.60;;
7571;SDS011;3827;49.928;8.548;2024-02-04T12:21:26;0.50;;;0.50;;
7571;SDS011;3827;49.928;8.548;2024-02-04T12:23:53;0.80;;;0.80;;
7571;SDS011;3827;49.928;8.548;2024-02-04T12:26:20;1.23;;;0.90;;
7571;SDS011;3827;49.928;8.548;2024-02-04T12:28:48;1.00;;;0.90;;
7571;SDS011;3827;49.928;8.548;2024-02-04T12:31:18;1.10;;;0.90;;
7571;SDS011;3827;49.928;8.548;2024-02-04T12:33:52;0.70;;;0.70;;
7571;SDS011;3827;49.928;8.548;2024-02-04T12:36:20;0.70;;;0.70;;
7571;SDS011;3827;49.928;8.548;2024-02-04T12:38:52;1.90;;;0.73;;
7571;SDS011;3827;49.928;8.548;2024-02-04T12:41:20;1.45;;;1.13;;
7571;SDS011;3827;49.928;8.548;2024-02-04T12:43:49;0.60;;;0.60;;
7571;SDS011;3827;49.928;8.548;2024-02-04T12:46:17;0.50;;;0.50;;
7571;SDS011;3827;49.928;8.548;2024-02-04T12:48:44;0.60;;;0.60;;
7571;SDS011;3827;49.928;8.548;2024-02-04T12:51:22;0.63;;;0.63;;
7571;SDS011;3827;49.928;8.548;2024-02-04T12:53:50;0.73;;;0.60;;
7571;SDS011;3827;49.928;8.548;2024-02-04T12:56:28;0.50;;;0.50;;
7571;SDS011;3827;49.928;8.548;2024-02-04T12:59:05;0.50;;;0.50;;
7571;SDS011;3827;49.928;8.548;2024-02-04T13:01:32;0.45;;;0.45;;
7571;SDS011;3827;49.928;8.548;2024-02-04T13:03:58;0.50;;;0.50;;
7571;SDS011;3827;49.928;8.548;2024-02-04T13:06:25;0.60;;;0.60;;
7571;SDS011;3827;49.928;8.548;2024-02-04T13:08:54;0.90;;;0.40;;
7571;SDS011;3827;49.928;8.548;2024-02-04T13:11:22;0.50;;;0.50;;
7571;SDS011;3827;49.928;8.548;2024-02-04T13:13:51;0.70;;;0.50;;
7571;SDS011;3827;49.928;8.548;2024-02-04T13:18:51;0.57;;;0.50;;
7571;SDS011;3827;49.928;8.548;2024-02-04T13:21:18;0.50;;;0.50;;
7571;SDS011;3827;49.928;8.548;2024-02-04T13:23:46;0.50;;;0.50;;
7571;SDS011;3827;49.928;8.548;2024-02-04T13:26:14;0.80;;;0.60;;
7571;SDS011;3827;49.928;8.548;2024-02-04T13:28:41;0.50;;;0.50;;
7571;SDS011;3827;49.928;8.548;2024-02-04T13:31:10;0.40;;;0.40;;
7571;SDS011;3827;49.928;8.548;2024-02-04T13:33:37;0.40;;;0.40;;
7571;SDS011;3827;49.928;8.548;2024-02-04T13:36:05;0.52;;;0.52;;
7571;SDS011;3827;49.928;8.548;2024-02-04T13:38:33;0.68;;;0.50;;
7571;SDS011;3827;49.928;8.548;2024-02-04T13:41:00;0.38;;;0.38;;
7571;SDS011;3827;49.928;8.548;2024-02-04T13:43:26;0.40;;;0.40;;
7571;SDS011;3827;49.928;8.548;2024-02-04T13:45:53;0.40;;;0.40;;
7571;SDS011;3827;49.928;8.548;2024-02-04T13:48:22;0.40;;;0.40;;
7571;SDS011;3827;49.928;8.548;2024-02-04T13:50:50;0.40;;;0.40;;
7571;SDS011;3827;49.928;8.548;2024-02-04T13:53:19;0.30;;;0.30;;
7571;SDS011;3827;49.928;8.548;2024-02-04T13:55:46;0.40;;;0.40;;
7571;SDS011;3827;49.928;8.548;2024-02-04T13:58:13;0.40;;;0.40;;
7571;SDS011;3827;49.928;8.548;2024-02-04T14:00:40;0.88;;;0.50;;
7571;SDS011;3827;49.928;8.548;2024-02-04T14:03:08;0.35;;;0.35;;
7571;SDS011;3827;49.928;8.548;2024-02-04T14:05:36;0.30;;;0.30;;
7571;SDS011;3827;49.928;8.548;2024-02-04T14:08:05;0.30;;;0.30;;
7571;SDS011;3827;49.928;8.548;2024-02-04T14:10:32;0.43;;;0.38;;
7571;SDS011;3827;49.928;8.548;2024-02-04T14:12:59;0.40;;;0.40;;
7571;SDS011;3827;49.928;8.548;2024-02-04T14:15:26;0.40;;;0.40;;
7571;SDS011;3827;49.928;8.548;2024-02-04T14:17:53;0.40;;;0.40;;
7571;SDS011;3827;49.928;8.548;2024-02-04T14:20:20;0.40;;;0.40;;
7571;SDS011;3827;49.928;8.548;2024-02-04T14:22:48;0.30;;;0.30;;
7571;SDS011;3827;49.928;8.548;2024-02-04T14:25:15;0.30;;;0.30;;
7571;SDS011;3827;49.928;8.548;2024-02-04T14:27:42;0.30;;;0.30;;
7571;SDS011;3827;49.928;8.548;2024-02-04T14:30:10;1.20;;;0.30;;
7571;SDS011;3827;49.928;8.548;2024-02-04T14:32:37;0.30;;;0.30;;
7571;SDS011;3827;49.928;8.548;2024-02-04T14:35:04;0.22;;;0.22;;
7571;SDS011;3827;49.928;8.548;2024-02-04T14:37:34;0.30;;;0.30;;
7571;SDS011;3827;49.928;8.548;2024-02-04T14:40:03;0.55;;;0.38;;
7571;SDS011;3827;49.928;8.548;2024-02-04T14:42:31;0.30;;;0.30;;
7571;SDS011;3827;49.928;8.548;2024-02-04T14:44:58;0.30;;;0.30;;
7571;SDS011;3827;49.928;8.548;2024-02-04T14:47:26;0.30;;;0.30;;
7571;SDS011;3827;49.928;8.548;2024-02-04T14:49:53;0.25;;;0.25;;
7571;SDS011;3827;49.928;8.548;2024-02-04T14:52:20;0.30;;;0.30;;
7571;SDS011;3827;49.928;8.548;2024-02-04T14:54:47;0.57;;;0.20;;
7571;SDS011;3827;49.928;8.548;2024-02-04T14:57:15;0.20;;;0.20;;
7571;SDS011;3827;49.928;8.548;2024-02-04T14:59:42;1.20;;;0.30;;
7571;SDS011;3827;49.928;8.548;2024-02-04T15:02:11;0.25;;;0.25;;
7571;SDS011;3827;49.928;8.548;2024-02-04T15:04:38;0.30;;;0.30;;
7571;SDS011;3827;49.928;8.548;2024-02-04T15:07:04;0.40;;;0.40;;
7571;SDS011;3827;49.928;8.548;2024-02-04T15:09:33;0.30;;;0.30;;
7571;SDS011;3827;49.928;8.548;2024-02-04T15:12:00;0.30;;;0.30;;
7571;SDS011;3827;49.928;8.548;2024-02-04T15:14:30;0.30;;;0.30;;
7571;SDS011;3827;49.928;8.548;2024-02-04T15:16:57;1.27;;;0.30;;
7571;SDS011;3827;49.928;8.548;2024-02-04T15:19:26;0.30;;;0.30;;
7571;SDS011;3827;49.928;8.548;2024-02-04T15:21:53;0.82;;;0.40;;
7571;SDS011;3827;49.928;8.548;2024-02-04T15:24:20;0.70;;;0.50;;